sensor_id;sensor_type;location;lat;lon;timestamp;pressure;altitude;pressure_sealevel;temperature
78905;BMP280;68291;49.602;8.722;2023-09-19T00:00:47;99025.94;;;20.60
78905;BMP280;68291;49.602;8.722;2023-09-19T00:03:46;99039.41;;;20.64
78905;BMP280;68291;49.602;8.722;2023-09-19T00:06:39;99030.06;;;20.62
78905;BMP280;68291;49.602;8.722;2023-09-19T00:09:40;99030.88;;;20.62
78905;BMP280;68291;49.602;8.722;2023-09-19T00:12:44;99038.97;;;20.69
78905;BMP280;68291;49.602;8.722;2023-09-19T00:15:39;99032.75;;;20.70
78905;BMP280;68291;49.602;8.722;2023-09-19T00:18:14;99041.59;;;20.69
78905;BMP280;68291;49.602;8.722;2023-09-19T00:21:36;99048.06;;;20.65
78905;BMP280;68291;49.602;8.722;2023-09-19T00:24:32;99041.88;;;20.66
78905;BMP280;68291;49.602;8.722;2023-09-19T00:27:27;99052.88;;;20.69
78905;BMP280;68291;49.602;8.722;2023-09-19T00:30:11;99044.31;;;20.77
78905;BMP280;68291;49.602;8.722;2023-09-19T00:32:59;99039.09;;;20.77
78905;BMP280;68291;49.602;8.722;2023-09-19T00:35:56;99047.88;;;20.76
78905;BMP280;68291;49.602;8.722;2023-09-19T00:38:51;99045.94;;;20.78
78905;BMP280;68291;49.602;8.722;2023-09-19T00:41:32;99048.44;;;20.79
78905;BMP280;68291;49.602;8.722;2023-09-19T00:44:34;99045.66;;;20.81
78905;BMP280;68291;49.602;8.722;2023-09-19T00:47:29;99056.81;;;20.83
78905;BMP280;68291;49.602;8.722;2023-09-19T00:50:27;99041.84;;;20.75
78905;BMP280;68291;49.602;8.722;2023-09-19T00:53:17;99048.00;;;20.84
78905;BMP280;68291;49.602;8.722;2023-09-19T00:56:00;99052.56;;;20.82
78905;BMP280;68291;49.602;8.722;2023-09-19T00:58:33;99052.69;;;20.80
78905;BMP280;68291;49.602;8.722;2023-09-19T01:01:05;99062.72;;;20.85
78905;BMP280;68291;49.602;8.722;2023-09-19T01:03:54;99057.50;;;20.85
78905;BMP280;68291;49.602;8.722;2023-09-19T01:06:45;99055.84;;;20.84
78905;BMP280;68291;49.602;8.722;2023-09-19T01:09:32;99073.06;;;20.86
78905;BMP280;68291;49.602;8.722;2023-09-19T01:13:00;99073.50;;;20.82
78905;BMP280;68291;49.602;8.722;2023-09-19T01:16:04;99071.56;;;20.84
78905;BMP280;68291;49.602;8.722;2023-09-19T01:19:22;99078.28;;;20.86
78905;BMP280;68291;49.602;8.722;2023-09-19T01:22:41;99079.50;;;20.92
78905;BMP280;68291;49.602;8.722;2023-09-19T01:29:15;99078.44;;;20.85
78905;BMP280;68291;49.602;8.722;2023-09-19T01:32:19;99082.84;;;20.84
78905;BMP280;68291;49.602;8.722;2023-09-19T01:35:05;99087.81;;;20.78
78905;BMP280;68291;49.602;8.722;2023-09-19T01:37:48;99080.97;;;20.77
78905;BMP280;68291;49.602;8.722;2023-09-19T01:40:58;99073.09;;;20.77
78905;BMP280;68291;49.602;8.722;2023-09-19T01:43:44;99085.88;;;20.80
78905;BMP280;68291;49.602;8.722;2023-09-19T01:46:35;99080.34;;;20.83
78905;BMP280;68291;49.602;8.722;2023-09-19T01:49:44;99094.13;;;20.85
78905;BMP280;68291;49.602;8.722;2023-09-19T01:52:32;99097.91;;;20.73
78905;BMP280;68291;49.602;8.722;2023-09-19T01:55:16;99099.84;;;20.61
78905;BMP280;68291;49.602;8.722;2023-09-19T01:58:21;99104.66;;;20.47
78905;BMP280;68291;49.602;8.722;2023-09-19T02:01:15;99105.78;;;20.35
78905;BMP280;68291;49.602;8.722;2023-09-19T02:04:06;99104.69;;;20.28
78905;BMP280;68291;49.602;8.722;2023-09-19T02:06:42;99103.19;;;20.26
78905;BMP280;68291;49.602;8.722;2023-09-19T02:09:31;99108.28;;;20.27
78905;BMP280;68291;49.602;8.722;2023-09-19T02:12:07;99106.63;;;20.26
78905;BMP280;68291;49.602;8.722;2023-09-19T02:14:50;99100.00;;;20.23
78905;BMP280;68291;49.602;8.722;2023-09-19T02:17:46;99113.06;;;20.23
78905;BMP280;68291;49.602;8.722;2023-09-19T02:20:56;99112.38;;;20.21
78905;BMP280;68291;49.602;8.722;2023-09-19T02:24:00;99117.63;;;20.21
78905;BMP280;68291;49.602;8.722;2023-09-19T02:26:44;99129.06;;;20.20
78905;BMP280;68291;49.602;8.722;2023-09-19T02:29:32;99133.72;;;20.16
78905;BMP280;68291;49.602;8.722;2023-09-19T02:32:18;99136.91;;;20.20
78905;BMP280;68291;49.602;8.722;2023-09-19T02:35:11;99152.59;;;20.20
78905;BMP280;68291;49.602;8.722;2023-09-19T02:38:07;99153.53;;;20.09
78905;BMP280;68291;49.602;8.722;2023-09-19T02:41:23;99152.44;;;20.02
78905;BMP280;68291;49.602;8.722;2023-09-19T02:44:06;99149.00;;;20.02
78905;BMP280;68291;49.602;8.722;2023-09-19T02:46:43;99148.84;;;20.03
78905;BMP280;68291;49.602;8.722;2023-09-19T02:49:18;99155.59;;;19.96
78905;BMP280;68291;49.602;8.722;2023-09-19T02:51:54;99157.66;;;19.93
78905;BMP280;68291;49.602;8.722;2023-09-19T02:54:43;99161.91;;;19.94
78905;BMP280;68291;49.602;8.722;2023-09-19T02:57:46;99160.69;;;19.98
78905;BMP280;68291;49.602;8.722;2023-09-19T03:00:35;99158.47;;;20.03
78905;BMP280;68291;49.602;8.722;2023-09-19T03:03:19;99165.78;;;20.09
78905;BMP280;68291;49.602;8.722;2023-09-19T03:06:03;99175.97;;;20.12
78905;BMP280;68291;49.602;8.722;2023-09-19T03:08:48;99177.06;;;20.09
78905;BMP280;68291;49.602;8.722;2023-09-19T03:11:38;99171.56;;;20.03
78905;BMP280;68291;49.602;8.722;2023-09-19T03:14:31;99174.44;;;20.00
78905;BMP280;68291;49.602;8.722;2023-09-19T03:17:15;99177.06;;;20.00
78905;BMP280;68291;49.602;8.722;2023-09-19T03:20:00;99181.72;;;19.96
78905;BMP280;68291;49.602;8.722;2023-09-19T03:22:34;99179.50;;;19.92
78905;BMP280;68291;49.602;8.722;2023-09-19T03:25:18;99189.56;;;19.87
78905;BMP280;68291;49.602;8.722;2023-09-19T03:28:07;99187.47;;;19.81
78905;BMP280;68291;49.602;8.722;2023-09-19T03:30:41;99184.16;;;19.79
78905;BMP280;68291;49.602;8.722;2023-09-19T03:33:20;99182.63;;;19.77
78905;BMP280;68291;49.602;8.722;2023-09-19T03:36:06;99188.13;;;19.74
78905;BMP280;68291;49.602;8.722;2023-09-19T03:38:45;99192.50;;;19.73
78905;BMP280;68291;49.602;8.722;2023-09-19T03:41:23;99183.31;;;19.69
78905;BMP280;68291;49.602;8.722;2023-09-19T03:43:54;99197.59;;;19.65
78905;BMP280;68291;49.602;8.722;2023-09-19T03:47:26;99196.72;;;19.55
78905;BMP280;68291;49.602;8.722;2023-09-19T03:50:20;99190.94;;;19.52
78905;BMP280;68291;49.602;8.722;2023-09-19T03:53:01;99196.28;;;19.51
78905;BMP280;68291;49.602;8.722;2023-09-19T03:55:36;99193.81;;;19.49
78905;BMP280;68291;49.602;8.722;2023-09-19T03:58:38;99187.34;;;19.44
78905;BMP280;68291;49.602;8.722;2023-09-19T04:01:19;99193.94;;;19.48
78905;BMP280;68291;49.602;8.722;2023-09-19T04:04:17;99190.50;;;19.47
78905;BMP280;68291;49.602;8.722;2023-09-19T04:07:10;99183.88;;;19.43
78905;BMP280;68291;49.602;8.722;2023-09-19T04:09:49;99192.81;;;19.41
78905;BMP280;68291;49.602;8.722;2023-09-19T04:12:38;99209.56;;;19.38
78905;BMP280;68291;49.602;8.722;2023-09-19T04:15:39;99210.66;;;19.36
78905;BMP280;68291;49.602;8.722;2023-09-19T04:18:33;99216.81;;;19.35
78905;BMP280;68291;49.602;8.722;2023-09-19T04:21:13;99205.56;;;19.34
78905;BMP280;68291;49.602;8.722;2023-09-19T04:23:48;99212.69;;;19.32
78905;BMP280;68291;49.602;8.722;2023-09-19T04:26:32;99206.22;;;19.27
78905;BMP280;68291;49.602;8.722;2023-09-19T04:29:26;99211.00;;;19.22
78905;BMP280;68291;49.602;8.722;2023-09-19T04:32:07;99222.66;;;19.18
78905;BMP280;68291;49.602;8.722;2023-09-19T04:34:57;99223.75;;;19.16
78905;BMP280;68291;49.602;8.722;2023-09-19T04:37:53;99226.88;;;19.10
78905;BMP280;68291;49.602;8.722;2023-09-19T04:40:30;99230.69;;;19.06
78905;BMP280;68291;49.602;8.722;2023-09-19T04:43:13;99236.56;;;18.98
78905;BMP280;68291;49.602;8.722;2023-09-19T04:46:10;99241.28;;;18.93
78905;BMP280;68291;49.602;8.722;2023-09-19T04:49:07;99243.56;;;18.87
78905;BMP280;68291;49.602;8.722;2023-09-19T04:52:05;99244.53;;;18.86
78905;BMP280;68291;49.602;8.722;2023-09-19T04:55:01;99250.16;;;18.82
78905;BMP280;68291;49.602;8.722;2023-09-19T04:57:58;99249.44;;;18.80
78905;BMP280;68291;49.602;8.722;2023-09-19T05:00:47;99246.84;;;18.80
78905;BMP280;68291;49.602;8.722;2023-09-19T05:03:44;99252.59;;;18.83
78905;BMP280;68291;49.602;8.722;2023-09-19T05:06:40;99250.97;;;18.82
78905;BMP280;68291;49.602;8.722;2023-09-19T05:09:36;99256.69;;;18.76
78905;BMP280;68291;49.602;8.722;2023-09-19T05:12:40;99260.75;;;18.69
78905;BMP280;68291;49.602;8.722;2023-09-19T05:15:32;99262.78;;;18.66
78905;BMP280;68291;49.602;8.722;2023-09-19T05:18:14;99277.03;;;18.62
78905;BMP280;68291;49.602;8.722;2023-09-19T05:21:03;99281.66;;;18.58
78905;BMP280;68291;49.602;8.722;2023-09-19T05:23:59;99287.25;;;18.54
78905;BMP280;68291;49.602;8.722;2023-09-19T05:26:41;99292.69;;;18.51
78905;BMP280;68291;49.602;8.722;2023-09-19T05:29:15;99293.91;;;18.47
78905;BMP280;68291;49.602;8.722;2023-09-19T05:32:12;99306.25;;;18.45
78905;BMP280;68291;49.602;8.722;2023-09-19T05:35:08;99301.16;;;18.44
78905;BMP280;68291;49.602;8.722;2023-09-19T05:38:01;99301.97;;;18.44
78905;BMP280;68291;49.602;8.722;2023-09-19T05:40:51;99308.34;;;18.51
78905;BMP280;68291;49.602;8.722;2023-09-19T05:43:37;99306.59;;;18.52
78905;BMP280;68291;49.602;8.722;2023-09-19T05:46:43;99302.06;;;18.53
78905;BMP280;68291;49.602;8.722;2023-09-19T05:49:28;99297.41;;;18.57
78905;BMP280;68291;49.602;8.722;2023-09-19T05:52:01;99304.16;;;18.59
78905;BMP280;68291;49.602;8.722;2023-09-19T05:54:42;99309.28;;;18.61
78905;BMP280;68291;49.602;8.722;2023-09-19T05:57:23;99300.75;;;18.59
78905;BMP280;68291;49.602;8.722;2023-09-19T06:00:16;99300.97;;;18.67
78905;BMP280;68291;49.602;8.722;2023-09-19T06:02:56;99303.75;;;18.75
78905;BMP280;68291;49.602;8.722;2023-09-19T06:05:52;99310.16;;;18.82
78905;BMP280;68291;49.602;8.722;2023-09-19T06:08:30;99303.84;;;18.84
78905;BMP280;68291;49.602;8.722;2023-09-19T06:11:20;99313.09;;;18.88
78905;BMP280;68291;49.602;8.722;2023-09-19T06:14:19;99312.81;;;18.91
78905;BMP280;68291;49.602;8.722;2023-09-19T06:16:52;99311.66;;;18.95
78905;BMP280;68291;49.602;8.722;2023-09-19T06:19:50;99314.00;;;18.98
78905;BMP280;68291;49.602;8.722;2023-09-19T06:22:47;99321.22;;;19.05
78905;BMP280;68291;49.602;8.722;2023-09-19T06:25:43;99320.94;;;19.08
78905;BMP280;68291;49.602;8.722;2023-09-19T06:28:21;99316.16;;;19.13
78905;BMP280;68291;49.602;8.722;2023-09-19T06:30:59;99319.09;;;19.20
78905;BMP280;68291;49.602;8.722;2023-09-19T06:33:41;99319.44;;;19.26
78905;BMP280;68291;49.602;8.722;2023-09-19T06:36:34;99326.63;;;19.33
78905;BMP280;68291;49.602;8.722;2023-09-19T06:39:31;99323.88;;;19.35
78905;BMP280;68291;49.602;8.722;2023-09-19T06:42:09;99325.16;;;19.40
78905;BMP280;68291;49.602;8.722;2023-09-19T06:44:51;99327.25;;;19.46
78905;BMP280;68291;49.602;8.722;2023-09-19T06:47:43;99327.31;;;19.55
78905;BMP280;68291;49.602;8.722;2023-09-19T06:50:39;99328.00;;;19.57
78905;BMP280;68291;49.602;8.722;2023-09-19T06:53:28;99338.50;;;19.67
78905;BMP280;68291;49.602;8.722;2023-09-19T06:56:19;99346.66;;;19.73
78905;BMP280;68291;49.602;8.722;2023-09-19T06:59:11;99351.47;;;19.78
78905;BMP280;68291;49.602;8.722;2023-09-19T07:01:49;99358.13;;;19.82
78905;BMP280;68291;49.602;8.722;2023-09-19T07:04:33;99360.25;;;19.88
78905;BMP280;68291;49.602;8.722;2023-09-19T07:07:29;99362.47;;;19.92
78905;BMP280;68291;49.602;8.722;2023-09-19T07:10:23;99369.78;;;19.98
78905;BMP280;68291;49.602;8.722;2023-09-19T07:13:12;99366.19;;;19.99
78905;BMP280;68291;49.602;8.722;2023-09-19T07:16:02;99376.13;;;20.05
78905;BMP280;68291;49.602;8.722;2023-09-19T07:18:44;99370.13;;;20.14
78905;BMP280;68291;49.602;8.722;2023-09-19T07:21:34;99365.59;;;20.16
78905;BMP280;68291;49.602;8.722;2023-09-19T07:24:17;99373.72;;;20.22
78905;BMP280;68291;49.602;8.722;2023-09-19T07:27:47;99378.00;;;20.23
78905;BMP280;68291;49.602;8.722;2023-09-19T07:30:25;99382.69;;;20.29
78905;BMP280;68291;49.602;8.722;2023-09-19T07:33:20;99378.63;;;20.36
78905;BMP280;68291;49.602;8.722;2023-09-19T07:35:57;99386.19;;;20.39
78905;BMP280;68291;49.602;8.722;2023-09-19T07:38:54;99390.41;;;20.30
78905;BMP280;68291;49.602;8.722;2023-09-19T07:41:44;99390.53;;;20.29
78905;BMP280;68291;49.602;8.722;2023-09-19T07:44:36;99401.56;;;20.32
78905;BMP280;68291;49.602;8.722;2023-09-19T07:47:22;99398.56;;;20.37
78905;BMP280;68291;49.602;8.722;2023-09-19T07:50:04;99398.16;;;20.41
78905;BMP280;68291;49.602;8.722;2023-09-19T07:53:00;99399.28;;;20.48
78905;BMP280;68291;49.602;8.722;2023-09-19T07:56:04;99403.97;;;20.54
78905;BMP280;68291;49.602;8.722;2023-09-19T07:59:00;99399.66;;;20.64
78905;BMP280;68291;49.602;8.722;2023-09-19T08:02:03;99406.53;;;20.74
78905;BMP280;68291;49.602;8.722;2023-09-19T08:04:59;99406.56;;;20.84
78905;BMP280;68291;49.602;8.722;2023-09-19T08:07:58;99407.84;;;20.98
78905;BMP280;68291;49.602;8.722;2023-09-19T08:10:43;99406.72;;;21.10
78905;BMP280;68291;49.602;8.722;2023-09-19T08:13:19;99409.34;;;21.10
78905;BMP280;68291;49.602;8.722;2023-09-19T08:16:05;99410.72;;;21.05
78905;BMP280;68291;49.602;8.722;2023-09-19T08:19:12;99414.84;;;20.98
78905;BMP280;68291;49.602;8.722;2023-09-19T08:22:12;99412.78;;;21.01
78905;BMP280;68291;49.602;8.722;2023-09-19T08:25:06;99423.66;;;21.06
78905;BMP280;68291;49.602;8.722;2023-09-19T08:28:03;99452.47;;;21.06
78905;BMP280;68291;49.602;8.722;2023-09-19T08:31:03;99440.88;;;21.09
78905;BMP280;68291;49.602;8.722;2023-09-19T08:33:37;99442.69;;;21.08
78905;BMP280;68291;49.602;8.722;2023-09-19T08:36:43;99438.44;;;21.07
78905;BMP280;68291;49.602;8.722;2023-09-19T08:39:46;99441.59;;;21.11
78905;BMP280;68291;49.602;8.722;2023-09-19T08:42:26;99438.44;;;21.17
78905;BMP280;68291;49.602;8.722;2023-09-19T08:45:19;99436.63;;;21.17
78905;BMP280;68291;49.602;8.722;2023-09-19T08:48:23;99440.50;;;21.23
78905;BMP280;68291;49.602;8.722;2023-09-19T08:51:18;99445.63;;;21.24
78905;BMP280;68291;49.602;8.722;2023-09-19T08:54:41;99457.34;;;21.20
78905;BMP280;68291;49.602;8.722;2023-09-19T08:57:37;99448.38;;;21.13
78905;BMP280;68291;49.602;8.722;2023-09-19T09:00:17;99456.47;;;21.10
78905;BMP280;68291;49.602;8.722;2023-09-19T09:03:01;99449.31;;;21.12
78905;BMP280;68291;49.602;8.722;2023-09-19T09:05:43;99458.84;;;21.23
78905;BMP280;68291;49.602;8.722;2023-09-19T09:08:27;99443.00;;;21.24
78905;BMP280;68291;49.602;8.722;2023-09-19T09:11:56;99434.72;;;21.19
78905;BMP280;68291;49.602;8.722;2023-09-19T09:14:47;99457.03;;;21.23
78905;BMP280;68291;49.602;8.722;2023-09-19T09:17:48;99431.56;;;21.16
78905;BMP280;68291;49.602;8.722;2023-09-19T09:20:37;99457.59;;;21.17
78905;BMP280;68291;49.602;8.722;2023-09-19T09:23:15;99435.56;;;21.20
78905;BMP280;68291;49.602;8.722;2023-09-19T09:26:03;99444.94;;;21.22
78905;BMP280;68291;49.602;8.722;2023-09-19T09:29:42;99445.47;;;21.26
78905;BMP280;68291;49.602;8.722;2023-09-19T09:32:24;99441.59;;;21.29
78905;BMP280;68291;49.602;8.722;2023-09-19T09:35:09;99444.91;;;21.31
78905;BMP280;68291;49.602;8.722;2023-09-19T09:38:01;99443.13;;;21.32
78905;BMP280;68291;49.602;8.722;2023-09-19T09:41:00;99452.97;;;21.39
78905;BMP280;68291;49.602;8.722;2023-09-19T09:43:51;99445.78;;;21.41
78905;BMP280;68291;49.602;8.722;2023-09-19T09:46:48;99457.78;;;21.44
78905;BMP280;68291;49.602;8.722;2023-09-19T09:49:48;99458.47;;;21.46
78905;BMP280;68291;49.602;8.722;2023-09-19T09:52:52;99445.09;;;21.49
78905;BMP280;68291;49.602;8.722;2023-09-19T09:56:00;99448.00;;;21.46
78905;BMP280;68291;49.602;8.722;2023-09-19T09:58:35;99453.94;;;21.48
78905;BMP280;68291;49.602;8.722;2023-09-19T10:01:23;99441.22;;;21.53
78905;BMP280;68291;49.602;8.722;2023-09-19T10:04:28;99444.66;;;21.53
78905;BMP280;68291;49.602;8.722;2023-09-19T10:07:26;99439.56;;;21.52
78905;BMP280;68291;49.602;8.722;2023-09-19T10:10:34;99445.34;;;21.55
78905;BMP280;68291;49.602;8.722;2023-09-19T10:13:37;99450.72;;;21.54
78905;BMP280;68291;49.602;8.722;2023-09-19T10:16:42;99445.50;;;21.54
78905;BMP280;68291;49.602;8.722;2023-09-19T10:19:28;99448.81;;;21.65
78905;BMP280;68291;49.602;8.722;2023-09-19T10:22:17;99443.56;;;21.74
78905;BMP280;68291;49.602;8.722;2023-09-19T10:25:09;99428.50;;;21.76
78905;BMP280;68291;49.602;8.722;2023-09-19T10:27:50;99437.75;;;21.80
78905;BMP280;68291;49.602;8.722;2023-09-19T10:30:43;99433.03;;;21.93
78905;BMP280;68291;49.602;8.722;2023-09-19T10:33:38;99432.44;;;22.08
78905;BMP280;68291;49.602;8.722;2023-09-19T10:36:17;99429.78;;;22.27
78905;BMP280;68291;49.602;8.722;2023-09-19T10:38:59;99439.81;;;22.41
78905;BMP280;68291;49.602;8.722;2023-09-19T10:41:38;99438.34;;;22.56
78905;BMP280;68291;49.602;8.722;2023-09-19T10:44:33;99438.88;;;22.59
78905;BMP280;68291;49.602;8.722;2023-09-19T10:47:11;99450.72;;;22.72
78905;BMP280;68291;49.602;8.722;2023-09-19T10:50:02;99447.88;;;22.83
78905;BMP280;68291;49.602;8.722;2023-09-19T10:52:53;99444.28;;;22.94
78905;BMP280;68291;49.602;8.722;2023-09-19T10:55:39;99432.25;;;23.08
78905;BMP280;68291;49.602;8.722;2023-09-19T10:58:28;99431.66;;;23.14
78905;BMP280;68291;49.602;8.722;2023-09-19T11:01:10;99438.03;;;23.12
78905;BMP280;68291;49.602;8.722;2023-09-19T11:04:28;99432.13;;;23.27
78905;BMP280;68291;49.602;8.722;2023-09-19T11:07:11;99422.38;;;23.37
78905;BMP280;68291;49.602;8.722;2023-09-19T11:09:53;99442.13;;;23.41
78905;BMP280;68291;49.602;8.722;2023-09-19T11:12:49;99431.66;;;23.49
78905;BMP280;68291;49.602;8.722;2023-09-19T11:16:18;99418.31;;;23.60
78905;BMP280;68291;49.602;8.722;2023-09-19T11:18:55;99418.03;;;23.63
78905;BMP280;68291;49.602;8.722;2023-09-19T11:21:53;99416.97;;;23.73
78905;BMP280;68291;49.602;8.722;2023-09-19T11:24:51;99422.09;;;23.82
78905;BMP280;68291;49.602;8.722;2023-09-19T11:27:32;99424.13;;;23.88
78905;BMP280;68291;49.602;8.722;2023-09-19T11:30:29;99417.56;;;23.92
78905;BMP280;68291;49.602;8.722;2023-09-19T11:33:19;99410.25;;;24.04
78905;BMP280;68291;49.602;8.722;2023-09-19T11:36:05;99416.75;;;24.17
78905;BMP280;68291;49.602;8.722;2023-09-19T11:39:00;99417.09;;;24.22
78905;BMP280;68291;49.602;8.722;2023-09-19T11:41:57;99403.25;;;24.20
78905;BMP280;68291;49.602;8.722;2023-09-19T11:44:48;99404.53;;;24.16
78905;BMP280;68291;49.602;8.722;2023-09-19T11:47:40;99390.84;;;24.05
78905;BMP280;68291;49.602;8.722;2023-09-19T11:50:21;99393.28;;;23.98
78905;BMP280;68291;49.602;8.722;2023-09-19T11:53:12;99389.22;;;24.04
78905;BMP280;68291;49.602;8.722;2023-09-19T11:55:52;99399.25;;;24.08
78905;BMP280;68291;49.602;8.722;2023-09-19T11:58:53;99387.94;;;24.15
78905;BMP280;68291;49.602;8.722;2023-09-19T12:01:35;99378.31;;;24.24
78905;BMP280;68291;49.602;8.722;2023-09-19T12:04:12;99388.31;;;24.20
78905;BMP280;68291;49.602;8.722;2023-09-19T12:07:01;99386.06;;;24.25
78905;BMP280;68291;49.602;8.722;2023-09-19T12:09:51;99380.66;;;24.35
78905;BMP280;68291;49.602;8.722;2023-09-19T12:13:00;99381.63;;;24.26
78905;BMP280;68291;49.602;8.722;2023-09-19T12:16:01;99375.78;;;24.22
78905;BMP280;68291;49.602;8.722;2023-09-19T12:18:37;99383.28;;;24.35
78905;BMP280;68291;49.602;8.722;2023-09-19T12:21:34;99365.44;;;24.54
78905;BMP280;68291;49.602;8.722;2023-09-19T12:24:26;99366.66;;;24.75
78905;BMP280;68291;49.602;8.722;2023-09-19T12:27:21;99370.63;;;24.79
78905;BMP280;68291;49.602;8.722;2023-09-19T12:30:01;99371.94;;;24.83
78905;BMP280;68291;49.602;8.722;2023-09-19T12:33:20;99363.59;;;24.95
78905;BMP280;68291;49.602;8.722;2023-09-19T12:36:19;99355.22;;;25.15
78905;BMP280;68291;49.602;8.722;2023-09-19T12:38:56;99357.69;;;25.25
78905;BMP280;68291;49.602;8.722;2023-09-19T12:41:43;99363.78;;;25.25
78905;BMP280;68291;49.602;8.722;2023-09-19T12:44:21;99355.06;;;25.17
78905;BMP280;68291;49.602;8.722;2023-09-19T12:47:19;99352.44;;;25.09
78905;BMP280;68291;49.602;8.722;2023-09-19T12:50:18;99355.72;;;25.11
78905;BMP280;68291;49.602;8.722;2023-09-19T12:53:27;99353.25;;;25.10
78905;BMP280;68291;49.602;8.722;2023-09-19T12:56:26;99362.16;;;25.09
78905;BMP280;68291;49.602;8.722;2023-09-19T12:59:07;99347.31;;;25.08
78905;BMP280;68291;49.602;8.722;2023-09-19T13:02:04;99342.38;;;25.20
78905;BMP280;68291;49.602;8.722;2023-09-19T13:04:53;99365.47;;;25.34
78905;BMP280;68291;49.602;8.722;2023-09-19T13:07:49;99335.13;;;25.38
78905;BMP280;68291;49.602;8.722;2023-09-19T13:10:26;99342.88;;;25.47
78905;BMP280;68291;49.602;8.722;2023-09-19T13:13:25;99343.69;;;25.64
78905;BMP280;68291;49.602;8.722;2023-09-19T13:16:15;99350.84;;;26.09
78905;BMP280;68291;49.602;8.722;2023-09-19T13:19:10;99340.84;;;26.43
78905;BMP280;68291;49.602;8.722;2023-09-19T13:22:36;99339.91;;;26.66
78905;BMP280;68291;49.602;8.722;2023-09-19T13:25:22;99340.44;;;27.14
78905;BMP280;68291;49.602;8.722;2023-09-19T13:28:18;99322.97;;;27.27
78905;BMP280;68291;49.602;8.722;2023-09-19T13:31:07;99330.16;;;27.55
78905;BMP280;68291;49.602;8.722;2023-09-19T13:33:48;99326.50;;;27.42
78905;BMP280;68291;49.602;8.722;2023-09-19T13:36:25;99316.47;;;27.15
78905;BMP280;68291;49.602;8.722;2023-09-19T13:39:18;99323.03;;;26.97
78905;BMP280;68291;49.602;8.722;2023-09-19T13:42:05;99329.75;;;26.77
78905;BMP280;68291;49.602;8.722;2023-09-19T13:44:49;99321.94;;;26.61
78905;BMP280;68291;49.602;8.722;2023-09-19T13:47:41;99312.31;;;26.68
78905;BMP280;68291;49.602;8.722;2023-09-19T13:50:27;99319.81;;;26.87
78905;BMP280;68291;49.602;8.722;2023-09-19T13:53:07;99315.09;;;26.97
78905;BMP280;68291;49.602;8.722;2023-09-19T13:55:48;99313.00;;;27.15
78905;BMP280;68291;49.602;8.722;2023-09-19T13:58:36;99306.63;;;27.46
78905;BMP280;68291;49.602;8.722;2023-09-19T14:01:21;99313.59;;;27.89
78905;BMP280;68291;49.602;8.722;2023-09-19T14:03:58;99308.88;;;27.99
78905;BMP280;68291;49.602;8.722;2023-09-19T14:06:43;99323.66;;;27.80
78905;BMP280;68291;49.602;8.722;2023-09-19T14:09:24;99307.91;;;27.64
78905;BMP280;68291;49.602;8.722;2023-09-19T14:12:13;99309.66;;;27.57
78905;BMP280;68291;49.602;8.722;2023-09-19T14:15:19;99304.94;;;27.30
78905;BMP280;68291;49.602;8.722;2023-09-19T14:18:06;99304.66;;;27.25
78905;BMP280;68291;49.602;8.722;2023-09-19T14:20:43;99306.63;;;27.01
78905;BMP280;68291;49.602;8.722;2023-09-19T14:23:23;99309.94;;;26.81
78905;BMP280;68291;49.602;8.722;2023-09-19T14:25:55;99312.59;;;26.73
78905;BMP280;68291;49.602;8.722;2023-09-19T14:28:32;99299.97;;;26.61
78905;BMP280;68291;49.602;8.722;2023-09-19T14:31:28;99318.84;;;26.50
78905;BMP280;68291;49.602;8.722;2023-09-19T14:34:30;99306.91;;;26.62
78905;BMP280;68291;49.602;8.722;2023-09-19T14:37:11;99296.91;;;26.49
78905;BMP280;68291;49.602;8.722;2023-09-19T14:39:43;99299.66;;;26.26
78905;BMP280;68291;49.602;8.722;2023-09-19T14:42:22;99297.06;;;26.10
78905;BMP280;68291;49.602;8.722;2023-09-19T14:45:04;99295.59;;;26.08
78905;BMP280;68291;49.602;8.722;2023-09-19T14:47:52;99291.94;;;26.09
78905;BMP280;68291;49.602;8.722;2023-09-19T14:50:48;99292.81;;;26.01
78905;BMP280;68291;49.602;8.722;2023-09-19T14:53:31;99298.28;;;25.92
78905;BMP280;68291;49.602;8.722;2023-09-19T14:56:11;99284.78;;;25.79
78905;BMP280;68291;49.602;8.722;2023-09-19T14:59:16;99288.81;;;25.59
78905;BMP280;68291;49.602;8.722;2023-09-19T15:02:06;99292.97;;;25.54
78905;BMP280;68291;49.602;8.722;2023-09-19T15:05:08;99303.81;;;25.43
78905;BMP280;68291;49.602;8.722;2023-09-19T15:07:47;99294.94;;;25.28
78905;BMP280;68291;49.602;8.722;2023-09-19T15:10:27;99284.41;;;25.28
78905;BMP280;68291;49.602;8.722;2023-09-19T15:13:03;99277.78;;;25.40
78905;BMP280;68291;49.602;8.722;2023-09-19T15:15:46;99277.44;;;25.67
78905;BMP280;68291;49.602;8.722;2023-09-19T15:18:23;99274.47;;;26.08
78905;BMP280;68291;49.602;8.722;2023-09-19T15:21:10;99259.09;;;26.49
78905;BMP280;68291;49.602;8.722;2023-09-19T15:23:47;99266.38;;;26.69
78905;BMP280;68291;49.602;8.722;2023-09-19T15:26:27;99266.88;;;26.95
78905;BMP280;68291;49.602;8.722;2023-09-19T15:29:13;99271.53;;;27.29
78905;BMP280;68291;49.602;8.722;2023-09-19T15:31:46;99268.16;;;27.72
78905;BMP280;68291;49.602;8.722;2023-09-19T15:34:27;99266.38;;;28.36
78905;BMP280;68291;49.602;8.722;2023-09-19T15:37:06;99262.28;;;28.68
78905;BMP280;68291;49.602;8.722;2023-09-19T15:39:40;99249.56;;;28.78
78905;BMP280;68291;49.602;8.722;2023-09-19T15:42:23;99254.59;;;29.15
78905;BMP280;68291;49.602;8.722;2023-09-19T15:45:12;99257.47;;;29.40
78905;BMP280;68291;49.602;8.722;2023-09-19T15:48:07;99254.84;;;29.20
78905;BMP280;68291;49.602;8.722;2023-09-19T15:51:04;99253.44;;;29.03
78905;BMP280;68291;49.602;8.722;2023-09-19T15:53:54;99253.44;;;29.03
78905;BMP280;68291;49.602;8.722;2023-09-19T15:56:45;99244.19;;;29.13
78905;BMP280;68291;49.602;8.722;2023-09-19T15:59:40;99250.09;;;29.36
78905;BMP280;68291;49.602;8.722;2023-09-19T16:02:27;99254.72;;;29.28
78905;BMP280;68291;49.602;8.722;2023-09-19T16:05:17;99250.41;;;29.27
78905;BMP280;68291;49.602;8.722;2023-09-19T16:08:13;99254.53;;;29.35
78905;BMP280;68291;49.602;8.722;2023-09-19T16:11:11;99245.34;;;29.31
78905;BMP280;68291;49.602;8.722;2023-09-19T16:14:16;99244.72;;;29.09
78905;BMP280;68291;49.602;8.722;2023-09-19T16:17:07;99250.72;;;28.96
78905;BMP280;68291;49.602;8.722;2023-09-19T16:20:04;99242.09;;;28.67
78905;BMP280;68291;49.602;8.722;2023-09-19T16:22:55;99246.63;;;28.38
78905;BMP280;68291;49.602;8.722;2023-09-19T16:26:06;99243.75;;;28.19